Time;durP1;ratioP1;P1;durP2;ratioP2;P2;SDS_P1;SDS_P2;PMS_P1;PMS_P2;Temp;Humidity;BMP_temperature;BMP_pressure;BME280_temperature;BME280_humidity;BME280_pressure;Samples;Min_cycle;Max_cycle;Signal;HPM_P1;HPM_P2
2022/05/13 00:01:05;;;;;;;3.58;3.28;;;22.50;56.40;;;;;;4974703;28;20191;-67
2022/05/13 00:03:32;;;;;;;3.13;2.92;;;22.50;56.30;;;;;;4973884;28;20801;-67
2022/05/13 00:05:59;;;;;;;3.28;3.08;;;22.50;56.30;;;;;;4973766;28;20671;-67
2022/05/13 00:08:26;;;;;;;3.95;3.60;;;22.50;56.30;;;;;;4975618;28;20201;-67
2022/05/13 00:10:54;;;;;;;4.80;3.30;;;22.50;56.30;;;;;;4973888;28;20191;-68
2022/05/13 00:13:21;;;;;;;3.10;2.90;;;22.50;56.40;;;;;;4974875;28;20241;-67
2022/05/13 00:15:48;;;;;;;3.40;3.20;;;22.50;56.40;;;;;;4973970;28;20193;-67
2022/05/13 00:18:15;;;;;;;4.80;3.47;;;22.50;56.50;;;;;;4974795;28;20270;-68
2022/05/13 00:20:45;;;;;;;3.28;3.08;;;22.50;56.50;;;;;;4974189;28;20341;-68
2022/05/13 00:23:12;;;;;;;3.15;2.95;;;22.50;56.30;;;;;;4973771;28;20607;-68
2022/05/13 00:25:39;;;;;;;3.35;3.10;;;22.50;56.30;;;;;;4975035;28;20190;-68
2022/05/13 00:28:08;;;;;;;3.58;3.15;;;22.50;56.30;;;;;;4975198;28;20186;-67
2022/05/13 00:30:36;;;;;;;3.25;3.05;;;22.50;56.50;;;;;;4978394;28;20186;-69
2022/05/13 00:33:03;;;;;;;3.05;2.85;;;22.50;56.40;;;;;;4976933;28;20218;-67
2022/05/13 00:35:30;;;;;;;3.33;3.10;;;22.50;56.50;;;;;;4973574;28;20197;-67
2022/05/13 00:37:57;;;;;;;3.13;2.83;;;22.50;56.40;;;;;;4973528;28;20595;-68
2022/05/13 00:40:24;;;;;;;3.17;2.97;;;22.50;56.30;;;;;;4973623;28;20690;-68
2022/05/13 00:42:51;;;;;;;3.90;3.60;;;22.50;56.30;;;;;;4973231;28;20317;-68
2022/05/13 00:45:19;;;;;;;3.35;3.00;;;22.40;56.20;;;;;;4973305;28;20206;-67
2022/05/13 00:47:46;;;;;;;3.10;2.90;;;22.50;56.30;;;;;;4973150;28;20197;-68
2022/05/13 00:50:15;;;;;;;3.30;3.10;;;22.50;56.40;;;;;;4973509;28;20194;-67
2022/05/13 00:52:43;;;;;;;3.22;3.00;;;22.40;56.30;;;;;;4973204;28;20702;-67
2022/05/13 00:55:11;;;;;;;3.90;3.50;;;22.40;56.30;;;;;;4974675;28;20582;-67
2022/05/13 00:57:38;;;;;;;3.70;2.92;;;22.40;56.40;;;;;;4973515;28;20217;-67
2022/05/13 01:00:08;;;;;;;3.72;3.50;;;22.40;56.40;;;;;;4974386;28;20685;-67
2022/05/13 01:02:37;;;;;;;3.45;3.15;;;22.40;56.40;;;;;;4973058;28;20221;-68
2022/05/13 01:05:05;;;;;;;3.67;3.10;;;22.40;57.00;;;;;;4973252;28;20253;-67
2022/05/13 01:07:33;;;;;;;3.30;3.10;;;22.40;56.40;;;;;;4973324;28;20191;-68
2022/05/13 01:10:01;;;;;;;3.50;3.20;;;22.40;56.50;;;;;;4973639;28;20202;-68
2022/05/13 01:12:31;;;;;;;3.17;2.97;;;22.40;56.40;;;;;;4975307;28;20570;-67
2022/05/13 01:14:59;;;;;;;3.00;2.80;;;22.40;56.40;;;;;;4979009;28;20194;-67
2022/05/13 01:20:16;;;;;;;3.10;2.90;;;22.40;56.30;;;;;;4976829;28;20234;-67
2022/05/13 01:22:45;;;;;;;3.20;3.00;;;22.40;56.30;;;;;;4976753;28;20222;-67
2022/05/13 01:25:13;;;;;;;2.80;2.67;;;22.40;56.20;;;;;;4977177;28;20194;-67
2022/05/13 01:27:42;;;;;;;3.22;3.03;;;22.40;56.20;;;;;;4978070;28;20195;-68
2022/05/13 01:30:10;;;;;;;3.33;3.05;;;22.40;56.20;;;;;;4976604;28;20198;-68
2022/05/13 01:32:37;;;;;;;3.15;2.95;;;22.40;56.20;;;;;;4976501;28;20305;-68
2022/05/13 01:35:05;;;;;;;3.00;2.80;;;22.40;56.20;;;;;;4978034;28;20208;-67
2022/05/13 01:37:32;;;;;;;3.13;2.92;;;22.40;56.20;;;;;;4978620;28;20210;-68
2022/05/13 01:40:01;;;;;;;3.25;2.95;;;22.40;56.20;;;;;;4976861;28;20233;-67
2022/05/13 01:42:28;;;;;;;3.67;3.38;;;22.40;56.20;;;;;;4977963;28;20221;-67
2022/05/13 01:44:56;;;;;;;3.45;3.15;;;22.40;56.20;;;;;;4977701;28;20202;-68
2022/05/13 01:47:24;;;;;;;2.95;2.75;;;22.40;56.30;;;;;;4976601;28;20257;-67
2022/05/13 01:49:51;;;;;;;3.10;2.90;;;22.40;56.30;;;;;;4976668;28;20584;-68
2022/05/13 01:52:18;;;;;;;3.40;3.10;;;22.30;56.30;;;;;;4976384;28;20244;-68
2022/05/13 01:54:46;;;;;;;3.20;3.00;;;22.30;56.40;;;;;;4977074;28;20209;-68
2022/05/13 01:57:14;;;;;;;3.30;3.00;;;22.40;56.40;;;;;;4976748;28;20549;-67
2022/05/13 01:59:41;;;;;;;4.13;3.83;;;22.30;56.30;;;;;;4977271;28;20248;-68
2022/05/13 02:02:09;;;;;;;3.30;3.08;;;22.30;56.30;;;;;;4976581;28;20285;-68
2022/05/13 02:04:37;;;;;;;3.15;2.95;;;22.30;57.00;;;;;;4976862;28;20198;-68
2022/05/13 02:07:06;;;;;;;3.58;3.28;;;22.30;56.30;;;;;;4977040;28;20670;-67
2022/05/13 02:09:32;;;;;;;3.17;2.88;;;22.30;56.30;;;;;;4976949;28;20196;-67
2022/05/13 02:12:00;;;;;;;3.28;3.08;;;22.30;56.30;;;;;;4977124;28;20578;-68
2022/05/13 02:14:28;;;;;;;3.53;3.22;;;22.30;56.90;;;;;;4976421;28;20202;-67
2022/05/13 02:16:55;;;;;;;3.28;3.08;;;22.30;56.30;;;;;;4976524;28;20293;-68
2022/05/13 02:19:22;;;;;;;2.90;2.70;;;22.30;56.20;;;;;;4977324;28;20305;-67
2022/05/13 02:21:49;;;;;;;3.28;2.80;;;22.30;56.20;;;;;;4976068;28;20210;-67
2022/05/13 02:24:16;;;;;;;3.63;3.33;;;22.30;56.30;;;;;;4975116;28;20644;-67
2022/05/13 02:26:43;;;;;;;3.10;2.90;;;22.30;56.30;;;;;;4976055;28;20256;-67
2022/05/13 02:29:15;;;;;;;3.25;3.05;;;22.30;56.30;;;;;;4975559;28;20205;-67
2022/05/13 02:35:30;;;;;;;3.40;3.10;;;22.30;56.40;;;;;;4977663;28;20173;-68
2022/05/13 02:37:57;;;;;;;4.35;3.13;;;22.30;56.20;;;;;;4975746;28;20218;-68
2022/05/13 02:41:11;;;;;;;3.10;2.90;;;22.20;56.20;;;;;;4975447;28;20694;-67
2022/05/13 02:43:13;;;;;;;4.82;3.03;;;22.30;56.40;;;;;;4976282;28;20317;-67
2022/05/13 02:45:40;;;;;;;3.40;3.10;;;22.20;56.30;;;;;;4976916;28;20198;-68
2022/05/13 02:48:07;;;;;;;3.10;2.90;;;22.20;56.30;;;;;;4976411;28;20190;-67
2022/05/13 02:50:37;;;;;;;3.42;3.13;;;22.20;56.10;;;;;;4975229;28;20209;-67
2022/05/13 02:53:05;;;;;;;3.75;2.90;;;22.20;56.20;;;;;;4975135;28;20296;-68
2022/05/13 02:55:32;;;;;;;3.50;3.20;;;22.20;56.10;;;;;;4975329;28;20221;-68
2022/05/13 02:57:59;;;;;;;3.28;2.97;;;22.20;56.30;;;;;;4975059;28;20218;-68
2022/05/13 03:00:26;;;;;;;3.00;2.80;;;22.30;56.30;;;;;;4975207;28;20202;-67
2022/05/13 03:02:53;;;;;;;3.00;2.80;;;22.30;56.20;;;;;;4974915;28;20596;-68
2022/05/13 03:05:20;;;;;;;3.00;2.80;;;22.20;56.10;;;;;;4975105;28;20206;-67
2022/05/13 03:07:50;;;;;;;2.95;2.75;;;22.20;56.10;;;;;;4974888;28;20570;-68
2022/05/13 03:10:17;;;;;;;3.20;2.90;;;22.20;56.70;;;;;;4974891;28;20194;-67
2022/05/13 03:12:44;;;;;;;3.38;3.08;;;22.30;56.20;;;;;;4974829;28;20694;-68
2022/05/13 03:15:12;;;;;;;3.95;3.15;;;22.20;56.20;;;;;;4976271;28;20213;-68
2022/05/13 03:17:39;;;;;;;3.00;2.80;;;22.20;56.30;;;;;;4976199;28;20224;-68
2022/05/13 03:20:08;;;;;;;3.90;3.03;;;22.20;56.20;;;;;;4976078;28;20190;-67
2022/05/13 03:22:35;;;;;;;2.97;2.72;;;22.30;56.20;;;;;;4974791;28;20233;-68
2022/05/13 03:25:03;;;;;;;3.00;2.80;;;22.20;56.00;;;;;;4974537;28;20208;-68
2022/05/13 03:27:31;;;;;;;3.65;2.90;;;22.30;56.10;;;;;;4976104;28;20632;-68
2022/05/13 03:29:58;;;;;;;3.00;2.80;;;22.30;56.00;;;;;;4974399;28;20205;-67
2022/05/13 03:32:25;;;;;;;3.00;2.65;;;22.40;56.10;;;;;;4975525;28;20245;-68
2022/05/13 03:34:53;;;;;;;2.92;2.72;;;22.40;56.00;;;;;;4973721;28;20212;-68
2022/05/13 03:37:19;;;;;;;2.88;2.67;;;22.40;55.90;;;;;;4974152;28;20205;-67
2022/05/13 03:39:47;;;;;;;2.78;2.58;;;22.40;55.80;;;;;;4974750;28;20244;-68
2022/05/13 03:42:15;;;;;;;2.85;2.65;;;22.40;55.50;;;;;;4974383;28;20194;-68
2022/05/13 03:44:42;;;;;;;3.30;2.70;;;22.50;55.60;;;;;;4974836;28;20225;-67
2022/05/13 03:47:09;;;;;;;3.30;3.00;;;22.50;55.60;;;;;;4976021;28;20186;-68
2022/05/13 03:49:36;;;;;;;3.75;2.90;;;22.50;55.50;;;;;;4974177;28;20611;-68
2022/05/13 03:52:04;;;;;;;2.88;2.67;;;22.40;55.40;;;;;;4973923;28;20194;-68
2022/05/13 03:54:31;;;;;;;3.33;3.03;;;22.50;55.30;;;;;;4975288;28;20214;-67
2022/05/13 03:56:58;;;;;;;3.13;2.83;;;22.40;55.40;;;;;;4974714;28;20212;-68
2022/05/13 03:59:27;;;;;;;2.83;2.63;;;22.50;55.30;;;;;;4974243;28;20225;-68
2022/05/13 04:01:54;;;;;;;2.90;2.70;;;22.50;55.40;;;;;;4974699;28;20360;-68
2022/05/13 04:04:22;;;;;;;3.78;2.60;;;22.50;56.00;;;;;;4973916;28;20221;-67
2022/05/13 04:09:35;;;;;;;3.15;2.70;;;22.50;55.20;;;;;;4986649;28;20202;-68
2022/05/13 04:17:32;;;;;;;3.00;2.80;;;22.50;55.30;;;;;;4974366;28;20202;-68
2022/05/13 04:19:59;;;;;;;2.80;2.60;;;22.50;55.30;;;;;;4975770;28;20214;-68
2022/05/13 04:22:26;;;;;;;3.10;2.90;;;22.50;55.30;;;;;;4974246;28;20648;-68
2022/05/13 04:24:53;;;;;;;3.13;2.92;;;22.60;55.40;;;;;;4974138;28;20651;-68
2022/05/13 04:27:20;;;;;;;3.08;2.78;;;22.50;55.20;;;;;;4973970;28;20205;-68
2022/05/13 04:29:49;;;;;;;2.92;2.70;;;22.50;55.30;;;;;;4974804;28;20209;-68
2022/05/13 04:32:15;;;;;;;2.80;2.60;;;22.50;55.40;;;;;;4973530;28;20221;-68
2022/05/13 04:34:43;;;;;;;3.00;2.80;;;22.50;55.20;;;;;;4974101;28;20273;-69
2022/05/13 04:37:10;;;;;;;3.40;2.80;;;22.50;55.30;;;;;;4973692;28;20202;-68
2022/05/13 04:39:37;;;;;;;3.20;2.70;;;22.50;55.40;;;;;;4973663;28;20309;-69
2022/05/13 04:45:14;;;;;;;3.80;3.20;;;22.50;55.80;;;;;;4974474;28;20193;-68
2022/05/13 04:50:26;;;;;;;4.53;3.67;;;22.50;57.20;;;;;;4973701;28;20189;-68
2022/05/13 04:52:53;;;;;;;6.50;3.90;;;22.50;57.70;;;;;;4973451;28;20214;-67
2022/05/13 04:55:20;;;;;;;4.20;3.80;;;22.40;57.90;;;;;;4974795;28;20273;-68
2022/05/13 04:57:47;;;;;;;4.78;3.80;;;22.40;58.30;;;;;;4973882;28;20682;-68
2022/05/13 05:00:17;;;;;;;4.47;3.75;;;22.40;58.60;;;;;;4973231;28;20222;-68
2022/05/13 05:02:43;;;;;;;4.25;3.80;;;22.30;58.90;;;;;;4973118;28;20226;-68
2022/05/13 05:05:11;;;;;;;7.25;4.07;;;22.30;59.00;;;;;;4973453;28;20198;-68
2022/05/13 05:07:38;;;;;;;4.38;3.80;;;22.30;59.40;;;;;;4973186;28;20288;-68
2022/05/13 05:10:05;;;;;;;4.13;3.70;;;22.30;59.60;;;;;;4973861;28;20209;-67
2022/05/13 05:12:32;;;;;;;5.55;4.00;;;22.20;59.70;;;;;;4973141;28;20737;-68
2022/05/13 05:14:59;;;;;;;4.10;3.80;;;22.20;59.50;;;;;;4974029;28;20216;-67
2022/05/13 05:17:27;;;;;;;4.97;4.47;;;22.30;59.60;;;;;;4973913;28;20277;-68
2022/05/13 05:19:54;;;;;;;4.10;3.70;;;22.30;59.70;;;;;;4974628;28;20273;-69
2022/05/13 05:22:22;;;;;;;4.47;4.03;;;22.20;59.30;;;;;;4974247;28;20588;-69
2022/05/13 05:24:48;;;;;;;4.57;3.67;;;22.20;59.30;;;;;;4974716;28;20563;-69
2022/05/13 05:27:15;;;;;;;4.20;3.85;;;22.30;59.30;;;;;;4972998;28;20194;-68
2022/05/13 05:29:44;;;;;;;4.80;3.60;;;22.30;59.30;;;;;;4974771;28;20190;-69
2022/05/13 05:32:12;;;;;;;3.70;3.40;;;22.30;59.10;;;;;;4973507;28;20195;-69
2022/05/13 05:34:40;;;;;;;4.88;3.40;;;22.30;59.10;;;;;;4973367;28;20203;-69
2022/05/13 05:37:08;;;;;;;3.70;3.40;;;22.30;59.00;;;;;;4973856;28;20738;-68
2022/05/13 05:39:35;;;;;;;3.90;3.60;;;22.30;58.90;;;;;;4972948;28;20221;-69
2022/05/13 05:42:02;;;;;;;3.67;3.33;;;22.30;58.90;;;;;;4972958;28;20758;-68
2022/05/13 05:44:29;;;;;;;3.97;3.55;;;22.30;58.90;;;;;;4973712;28;20195;-68
2022/05/13 05:46:58;;;;;;;3.58;3.28;;;22.30;58.90;;;;;;4975631;28;20260;-70
2022/05/13 05:49:25;;;;;;;3.28;3.00;;;22.20;58.70;;;;;;4976030;28;20182;-68
2022/05/13 05:51:53;;;;;;;3.47;2.92;;;22.30;58.60;;;;;;4973177;28;20202;-68
2022/05/13 05:57:14;;;;;;;3.58;3.28;;;22.30;58.60;;;;;;4972912;28;20595;-67
2022/05/13 05:59:41;;;;;;;4.60;3.47;;;22.30;58.60;;;;;;4974813;28;20213;-69
2022/05/13 06:02:08;;;;;;;3.50;2.90;;;22.30;58.50;;;;;;4976295;28;20198;-68
2022/05/13 06:04:36;;;;;;;3.38;3.08;;;22.30;59.00;;;;;;4976623;28;20201;-68
2022/05/13 06:07:05;;;;;;;3.53;3.25;;;22.30;58.30;;;;;;4976650;28;20205;-66
2022/05/13 06:09:32;;;;;;;3.90;3.10;;;22.30;58.30;;;;;;4976288;28;20260;-68
2022/05/13 06:12:00;;;;;;;3.58;3.10;;;22.30;58.30;;;;;;4976013;28;20567;-68
2022/05/13 06:14:27;;;;;;;3.28;2.97;;;22.30;58.20;;;;;;4977782;28;20685;-68
2022/05/13 06:16:54;;;;;;;3.25;2.97;;;22.40;58.20;;;;;;4976145;28;20622;-68
2022/05/13 06:19:21;;;;;;;2.88;2.67;;;22.40;58.00;;;;;;4977450;28;20213;-68
2022/05/13 06:21:49;;;;;;;3.42;3.03;;;22.40;57.90;;;;;;4978022;28;20200;-68
2022/05/13 06:24:18;;;;;;;3.50;3.20;;;22.40;57.80;;;;;;4977368;28;20706;-68
2022/05/13 06:26:45;;;;;;;4.75;3.10;;;22.40;57.70;;;;;;4976272;28;20194;-68
2022/05/13 06:29:12;;;;;;;3.20;2.90;;;22.40;57.70;;;;;;4976558;28;20198;-68
2022/05/13 06:31:39;;;;;;;2.88;2.67;;;22.40;57.50;;;;;;4976712;28;20547;-68
2022/05/13 06:34:06;;;;;;;3.47;3.00;;;22.50;57.60;;;;;;4975784;28;20221;-68
2022/05/13 06:36:33;;;;;;;3.25;2.95;;;22.50;57.50;;;;;;4978149;28;20194;-68
2022/05/13 06:39:01;;;;;;;2.90;2.70;;;22.50;57.50;;;;;;4976040;28;20265;-68
2022/05/13 06:41:29;;;;;;;3.58;2.90;;;22.50;57.50;;;;;;4976035;28;20209;-70
2022/05/13 06:43:57;;;;;;;3.28;2.90;;;22.60;57.40;;;;;;4975745;28;20594;-68
2022/05/13 06:46:24;;;;;;;3.90;2.95;;;22.60;57.30;;;;;;4978210;28;20322;-68
2022/05/13 06:48:51;;;;;;;2.90;2.70;;;22.60;57.30;;;;;;4975504;28;20208;-68
2022/05/13 06:51:18;;;;;;;3.03;2.80;;;22.70;57.30;;;;;;4976565;28;20614;-68
2022/05/13 06:53:45;;;;;;;4.00;3.17;;;22.70;57.10;;;;;;4975240;28;20596;-68
2022/05/13 06:56:12;;;;;;;4.85;2.63;;;22.70;57.10;;;;;;4975713;28;20659;-68
2022/05/13 06:58:40;;;;;;;3.03;2.78;;;22.70;57.00;;;;;;4975258;28;20205;-68
2022/05/13 07:01:07;;;;;;;3.17;2.83;;;22.70;57.00;;;;;;4976638;28;20190;-68
2022/05/13 07:03:35;;;;;;;3.45;2.72;;;22.70;56.80;;;;;;4975725;28;20222;-68
2022/05/13 07:06:02;;;;;;;3.67;2.90;;;22.70;56.70;;;;;;4977174;28;20191;-68
2022/05/13 07:08:30;;;;;;;3.25;2.95;;;22.70;56.70;;;;;;4975980;28;20198;-68
2022/05/13 07:10:58;;;;;;;3.17;2.97;;;22.70;56.70;;;;;;4976137;28;20229;-68
2022/05/13 07:13:25;;;;;;;3.10;2.90;;;22.70;56.80;;;;;;4975136;28;20222;-68
2022/05/13 07:15:53;;;;;;;3.67;2.67;;;22.70;56.70;;;;;;4975063;28;20202;-68
2022/05/13 07:18:20;;;;;;;3.65;2.80;;;22.70;56.70;;;;;;4976105;28;20237;-68
2022/05/13 07:20:48;;;;;;;3.67;3.03;;;22.70;56.70;;;;;;4974703;28;20213;-68
2022/05/13 07:23:16;;;;;;;4.07;2.50;;;22.70;56.70;;;;;;4975072;28;20213;-68
2022/05/13 07:25:43;;;;;;;3.22;2.78;;;22.70;56.80;;;;;;4975924;28;20273;-68
2022/05/13 07:28:10;;;;;;;3.00;2.70;;;22.70;56.70;;;;;;4974759;28;20198;-68
2022/05/13 07:30:37;;;;;;;3.00;2.78;;;22.70;56.70;;;;;;4974567;28;20666;-68
2022/05/13 07:33:06;;;;;;;2.90;2.70;;;22.70;56.80;;;;;;4975185;28;20229;-68
2022/05/13 07:35:33;;;;;;;3.08;2.70;;;22.70;56.70;;;;;;4975822;28;20285;-68
2022/05/13 07:38:01;;;;;;;2.92;2.70;;;22.70;56.70;;;;;;4976542;28;20222;-68
2022/05/13 07:43:13;;;;;;;3.53;2.90;;;22.70;56.70;;;;;;4974380;28;20225;-68
2022/05/13 07:45:40;;;;;;;2.63;2.42;;;22.70;57.40;;;;;;4976160;28;20240;-68
2022/05/13 07:48:09;;;;;;;3.42;2.70;;;22.70;56.80;;;;;;4975872;28;20201;-68
2022/05/13 07:50:36;;;;;;;2.53;2.33;;;22.70;56.70;;;;;;4974404;28;20696;-68
2022/05/13 07:53:03;;;;;;;3.17;2.75;;;22.70;56.70;;;;;;4974867;28;20240;-68
2022/05/13 07:55:31;;;;;;;2.78;2.50;;;22.70;56.70;;;;;;4974483;28;20199;-68
2022/05/13 07:57:59;;;;;;;2.85;2.65;;;22.70;56.70;;;;;;4974297;28;20249;-68
2022/05/13 08:00:29;;;;;;;2.95;2.65;;;22.70;56.60;;;;;;4975087;28;20214;-69
2022/05/13 08:02:58;;;;;;;2.90;2.50;;;22.70;56.60;;;;;;4976152;28;20698;-68
2022/05/13 08:05:28;;;;;;;2.53;2.42;;;22.70;56.70;;;;;;4975840;28;20245;-68
2022/05/13 08:08:03;;;;;;;3.65;2.85;;;22.70;56.60;;;;;;4975446;28;20244;-70
2022/05/13 08:10:31;;;;;;;2.50;2.30;;;22.70;56.50;;;;;;4974414;28;20209;-68
2022/05/13 08:12:58;;;;;;;2.90;2.65;;;22.80;56.60;;;;;;4975049;28;20218;-68
2022/05/13 08:15:25;;;;;;;2.60;2.35;;;22.80;56.60;;;;;;4975560;28;20194;-68
2022/05/13 08:17:52;;;;;;;2.60;2.40;;;22.80;56.50;;;;;;4974987;28;20202;-68
2022/05/13 08:20:19;;;;;;;2.60;2.40;;;22.80;56.60;;;;;;4973900;28;20218;-68
2022/05/13 08:22:47;;;;;;;3.13;2.70;;;22.90;56.60;;;;;;4973823;28;20726;-68
2022/05/13 08:32:49;;;;;;;3.15;2.60;;;23.10;56.10;;;;;;4976728;28;20344;-68
2022/05/13 08:39:07;;;;;;;3.05;2.40;;;23.20;55.40;;;;;;4980820;28;20250;-68
2022/05/13 08:41:54;;;;;;;2.97;2.47;;;23.30;55.10;;;;;;4980996;28;20205;-69
2022/05/13 08:44:21;;;;;;;2.33;2.10;;;23.20;54.80;;;;;;4974483;28;20292;-68
2022/05/13 08:46:51;;;;;;;2.50;2.30;;;23.30;54.70;;;;;;4974905;28;20201;-68
2022/05/13 08:49:25;;;;;;;2.60;2.40;;;23.30;54.60;;;;;;4975848;28;20265;-68
2022/05/13 08:51:59;;;;;;;3.83;2.40;;;23.30;54.40;;;;;;4974963;28;20182;-68
2022/05/13 08:54:34;;;;;;;2.63;2.30;;;23.40;54.40;;;;;;4973539;28;20198;-68
2022/05/13 08:57:04;;;;;;;2.40;2.30;;;23.50;54.20;;;;;;4975003;28;20181;-68
2022/05/13 08:59:36;;;;;;;2.75;2.30;;;23.50;54.10;;;;;;4973495;28;20222;-68
2022/05/13 09:02:05;;;;;;;3.20;2.30;;;23.60;54.00;;;;;;4973289;28;20261;-68
2022/05/13 09:04:35;;;;;;;2.58;2.10;;;23.80;53.60;;;;;;4974524;28;20200;-68
2022/05/13 09:07:04;;;;;;;2.20;2.00;;;24.00;53.10;;;;;;4973332;28;20277;-70
2022/05/13 09:09:33;;;;;;;2.45;2.25;;;24.30;52.50;;;;;;4973251;28;20686;-68
2022/05/13 09:12:03;;;;;;;3.13;2.33;;;24.60;52.00;;;;;;4973931;28;20202;-68
2022/05/13 09:14:36;;;;;;;2.53;2.00;;;24.80;51.40;;;;;;4974605;28;20182;-68
2022/05/13 09:17:19;;;;;;;2.13;2.03;;;25.00;50.90;;;;;;4974659;28;20175;-68
2022/05/13 09:19:51;;;;;;;2.30;2.10;;;25.10;50.60;;;;;;4973175;28;20221;-68
2022/05/13 09:22:18;;;;;;;2.60;2.40;;;25.10;50.40;;;;;;4974832;28;20210;-68
2022/05/13 09:24:47;;;;;;;2.33;2.13;;;25.20;50.10;;;;;;4973109;28;20206;-68
2022/05/13 09:27:14;;;;;;;3.25;2.28;;;25.20;50.00;;;;;;4973165;28;20744;-68
2022/05/13 09:29:42;;;;;;;2.45;2.20;;;25.20;49.90;;;;;;4973089;28;20689;-68
2022/05/13 09:32:14;;;;;;;2.00;1.90;;;25.10;49.90;;;;;;4974415;28;20198;-68
2022/05/13 09:34:48;;;;;;;2.28;1.95;;;25.10;50.10;;;;;;4978098;28;20186;-68
2022/05/13 09:37:19;;;;;;;3.10;2.08;;;24.90;50.10;;;;;;4976981;28;20197;-67
2022/05/13 09:43:37;;;;;;;2.92;2.03;;;24.80;50.50;;;;;;4977976;28;20205;-68
2022/05/13 09:46:07;;;;;;;2.65;1.98;;;24.70;51.10;;;;;;4977736;28;20190;-68
2022/05/13 09:48:36;;;;;;;2.83;2.00;;;24.70;51.20;;;;;;4976478;28;20293;-68
2022/05/13 09:54:47;;;;;;;2.70;1.88;;;24.60;50.80;;;;;;4938150;29;20202;-68
2022/05/13 09:57:15;;;;;;;2.00;1.90;;;24.60;50.90;;;;;;4921475;29;20208;-68
2022/05/13 09:59:45;;;;;;;2.30;2.10;;;24.50;50.90;;;;;;4972507;28;20224;-68
2022/05/13 10:02:24;;;;;;;2.10;1.90;;;24.50;50.90;;;;;;4976343;28;20195;-69
2022/05/13 10:04:52;;;;;;;2.33;2.10;;;24.50;50.90;;;;;;4976218;28;20198;-68
2022/05/13 10:07:18;;;;;;;2.00;1.90;;;24.50;51.10;;;;;;4976247;28;20201;-68
2022/05/13 10:15:25;;;;;;;2.03;1.90;;;24.40;51.10;;;;;;4976278;28;20546;-68
2022/05/13 10:17:53;;;;;;;2.25;2.10;;;24.40;51.10;;;;;;4976211;28;20198;-68
2022/05/13 10:20:26;;;;;;;2.20;2.00;;;24.40;51.10;;;;;;4977049;28;20210;-68
2022/05/13 10:22:57;;;;;;;2.20;2.00;;;24.40;51.10;;;;;;4975861;28;20222;-70
2022/05/13 10:25:25;;;;;;;2.45;1.80;;;24.40;51.10;;;;;;4976400;28;20206;-68
2022/05/13 10:27:55;;;;;;;2.20;2.05;;;24.40;51.10;;;;;;4975948;28;20198;-68
2022/05/13 10:38:04;;;;;;;1.90;1.80;;;24.40;51.00;;;;;;4977654;28;20541;-72
2022/05/13 10:40:34;;;;;;;2.10;1.90;;;24.40;51.00;;;;;;4976361;28;20261;-72
2022/05/13 10:43:03;;;;;;;2.20;2.00;;;24.40;50.90;;;;;;4976929;28;20218;-72
2022/05/13 10:45:31;;;;;;;2.28;2.00;;;24.40;50.90;;;;;;4975132;28;20627;-72
2022/05/13 10:48:02;;;;;;;2.13;1.92;;;24.40;50.90;;;;;;4977507;28;20273;-68
2022/05/13 10:50:34;;;;;;;2.15;1.90;;;24.40;50.90;;;;;;4975380;28;20190;-67
2022/05/13 10:53:08;;;;;;;2.03;1.90;;;24.40;50.90;;;;;;4975357;28;20232;-68
2022/05/13 10:55:43;;;;;;;2.30;2.10;;;24.40;50.80;;;;;;4976873;28;20182;-67
2022/05/13 10:58:17;;;;;;;2.00;1.80;;;24.30;50.80;;;;;;4976752;28;20192;-68
2022/05/13 11:00:48;;;;;;;2.00;1.90;;;24.30;50.90;;;;;;4976543;28;20670;-67
2022/05/13 11:03:50;;;;;;;2.53;2.00;;;24.30;50.90;;;;;;4975153;28;20300;-68
2022/05/13 11:06:25;;;;;;;2.17;1.98;;;24.30;50.90;;;;;;4935967;29;20656;-68
2022/05/13 11:08:56;;;;;;;2.65;2.00;;;24.30;51.00;;;;;;4970333;28;20225;-67
2022/05/13 11:11:31;;;;;;;2.20;1.90;;;24.30;51.00;;;;;;4975104;28;20198;-67
2022/05/13 11:14:03;;;;;;;2.13;1.80;;;24.30;51.00;;;;;;4975031;28;20221;-68
2022/05/13 11:26:54;;;;;;;2.17;1.98;;;24.30;51.00;;;;;;4940072;29;20195;-68
2022/05/13 11:29:23;;;;;;;1.80;1.70;;;24.30;51.60;;;;;;4966068;28;20206;-68
2022/05/13 11:32:09;;;;;;;1.90;1.80;;;24.30;50.90;;;;;;4975119;28;20204;-68
2022/05/13 11:34:47;;;;;;;2.28;2.08;;;24.30;50.90;;;;;;4974733;28;20651;-68
2022/05/13 11:37:15;;;;;;;2.00;1.90;;;24.30;50.80;;;;;;4974769;28;20202;-68
2022/05/13 11:39:50;;;;;;;2.13;1.92;;;24.40;50.80;;;;;;4974474;28;20229;-68
2022/05/13 11:43:18;;;;;;;1.80;1.70;;;24.40;50.70;;;;;;4974687;28;20233;-68
2022/05/13 11:45:36;;;;;;;1.73;1.63;;;24.40;50.60;;;;;;4975663;28;20194;-68
2022/05/13 11:48:21;;;;;;;1.90;1.80;;;24.50;50.50;;;;;;4975513;28;20189;-68
2022/05/13 11:50:49;;;;;;;1.77;1.67;;;24.50;50.50;;;;;;4975507;28;20237;-67
2022/05/13 11:53:44;;;;;;;1.95;1.85;;;24.50;50.50;;;;;;4975562;28;20687;-67
2022/05/13 11:56:20;;;;;;;1.95;1.85;;;24.50;50.40;;;;;;4974859;28;20186;-68
2022/05/13 11:58:56;;;;;;;2.20;2.00;;;24.50;50.40;;;;;;4974338;28;20204;-68
2022/05/13 12:01:57;;;;;;;2.10;2.00;;;24.50;50.30;;;;;;4990633;23;20712;-62
2022/05/13 12:04:30;;;;;;;2.00;1.90;;;24.50;50.40;;;;;;4956637;28;20304;-61
2022/05/13 12:06:58;;;;;;;1.95;1.85;;;24.50;50.30;;;;;;4955850;28;20187;-62
2022/05/13 12:43:48;;;;;;;1.90;1.80;;;24.70;49.80;;;;;;4938077;29;20178;-74
2022/05/13 12:46:17;;;;;;;1.85;1.75;;;24.70;49.90;;;;;;4936535;29;20572;-74
2022/05/13 12:49:03;;;;;;;2.00;1.90;;;24.70;49.90;;;;;;4935295;29;20215;-74
2022/05/13 12:51:39;;;;;;;2.00;1.88;;;24.70;49.90;;;;;;4936983;29;20207;-74
2022/05/13 12:54:06;;;;;;;2.08;1.98;;;24.70;49.90;;;;;;4935027;29;20206;-74
2022/05/13 12:56:35;;;;;;;1.80;1.70;;;24.70;49.90;;;;;;4935265;29;20203;-74
2022/05/13 12:59:09;;;;;;;1.88;1.70;;;24.70;49.90;;;;;;4936363;29;20257;-74
2022/05/13 13:01:36;;;;;;;2.17;2.08;;;24.70;49.90;;;;;;4935061;29;20234;-74
2022/05/13 13:07:21;;;;;;;2.00;1.90;;;24.70;49.80;;;;;;4973630;28;20637;-74
2022/05/13 13:09:51;;;;;;;1.70;1.60;;;24.70;49.80;;;;;;5061193;23;20658;-74
2022/05/13 13:12:20;;;;;;;1.95;1.85;;;24.70;49.70;;;;;;4980369;28;20225;-74
2022/05/13 13:14:52;;;;;;;1.92;1.83;;;24.70;49.80;;;;;;4977530;28;20738;-74
2022/05/13 13:17:26;;;;;;;2.10;1.90;;;24.80;49.80;;;;;;4977286;28;20248;-74
2022/05/13 13:19:57;;;;;;;1.90;1.80;;;24.70;49.70;;;;;;4977133;28;20201;-74
2022/05/13 13:22:25;;;;;;;1.83;1.73;;;24.70;49.60;;;;;;4978149;28;20218;-74
2022/05/13 13:24:52;;;;;;;2.60;1.98;;;24.80;49.60;;;;;;4978122;28;20186;-75
2022/05/13 13:27:20;;;;;;;1.83;1.67;;;24.80;49.60;;;;;;4978489;28;20260;-74
2022/05/13 13:29:49;;;;;;;1.80;1.70;;;24.80;49.60;;;;;;4978150;28;20222;-74
2022/05/13 13:32:17;;;;;;;1.85;1.75;;;24.80;49.60;;;;;;4977172;28;20289;-74
2022/05/13 13:34:50;;;;;;;1.98;1.88;;;24.80;49.60;;;;;;4976977;28;20202;-74
2022/05/13 13:37:18;;;;;;;1.70;1.60;;;24.80;49.60;;;;;;4976930;28;20190;-74
2022/05/13 13:39:45;;;;;;;1.98;1.88;;;24.80;49.60;;;;;;4977027;28;20202;-74
2022/05/13 13:42:14;;;;;;;1.80;1.70;;;24.80;49.60;;;;;;4976543;28;20317;-74
2022/05/13 13:44:43;;;;;;;1.85;1.75;;;24.80;49.60;;;;;;4976694;28;20206;-74
2022/05/13 13:47:14;;;;;;;1.80;1.70;;;24.80;49.60;;;;;;4976666;28;20292;-74
2022/05/13 13:49:42;;;;;;;1.80;1.55;;;24.70;49.50;;;;;;4978404;28;20241;-74
2022/05/13 13:52:14;;;;;;;1.98;1.88;;;24.70;49.50;;;;;;4976594;28;20213;-74
2022/05/13 13:54:42;;;;;;;1.90;1.80;;;24.70;49.50;;;;;;4976470;28;20666;-74
2022/05/13 13:57:23;;;;;;;2.03;1.83;;;24.70;49.60;;;;;;4977604;28;20201;-74
2022/05/13 13:59:54;;;;;;;2.00;1.90;;;24.70;49.60;;;;;;4978282;28;20273;-74
2022/05/13 14:02:34;;;;;;;1.80;1.70;;;24.70;49.60;;;;;;4976357;28;20229;-74
2022/05/13 14:05:01;;;;;;;2.08;1.98;;;24.70;49.50;;;;;;4976337;28;20197;-74
2022/05/13 14:07:29;;;;;;;1.90;1.80;;;24.70;49.60;;;;;;4976334;28;20202;-74
2022/05/13 14:09:57;;;;;;;1.73;1.63;;;24.70;49.60;;;;;;4976276;28;20198;-74
2022/05/13 14:12:24;;;;;;;2.00;1.80;;;24.60;49.60;;;;;;4976208;28;20703;-74
2022/05/13 14:14:52;;;;;;;2.00;1.90;;;24.70;49.60;;;;;;4980712;28;20195;-74
2022/05/13 14:17:20;;;;;;;1.83;1.73;;;24.60;49.40;;;;;;4990720;28;20280;-74
2022/05/13 14:19:52;;;;;;;1.90;1.70;;;24.60;49.60;;;;;;4975771;28;20194;-74
2022/05/13 14:22:20;;;;;;;1.98;1.88;;;24.60;50.20;;;;;;4977336;28;20687;-74
2022/05/13 14:24:47;;;;;;;1.90;1.70;;;24.60;49.50;;;;;;4976080;28;20217;-74
2022/05/13 14:27:16;;;;;;;2.15;1.92;;;24.60;50.10;;;;;;4976085;28;20201;-74
2022/05/13 14:29:44;;;;;;;1.83;1.73;;;24.60;49.50;;;;;;4976229;28;20289;-74
2022/05/13 14:32:12;;;;;;;2.25;2.05;;;24.60;49.60;;;;;;4987796;28;20210;-75
2022/05/13 14:34:40;;;;;;;1.80;1.70;;;24.60;49.40;;;;;;4996229;28;20190;-74
2022/05/13 14:37:10;;;;;;;1.80;1.70;;;24.60;50.30;;;;;;4976810;28;20615;-74
2022/05/13 14:39:51;;;;;;;1.80;1.70;;;24.60;49.70;;;;;;4978533;28;20295;-74
2022/05/13 14:42:24;;;;;;;1.80;1.70;;;24.60;49.70;;;;;;4976108;28;20222;-74
2022/05/13 14:44:51;;;;;;;1.67;1.58;;;24.60;49.70;;;;;;4976423;28;20190;-74